sensor_id;sensor_type;location;lat;lon;timestamp;temperature;humidity
13389;DHT22;6764;53.250;10.410;2024-03-06T00:01:03;4.40;99.90
13389;DHT22;6764;53.250;10.410;2024-03-06T00:03:29;4.30;99.90
13389;DHT22;6764;53.250;10.410;2024-03-06T00:05:54;4.40;99.90
13389;DHT22;6764;53.250;10.410;2024-03-06T00:08:20;4.30;99.90
13389;DHT22;6764;53.250;10.410;2024-03-06T00:10:45;4.30;99.90
13389;DHT22;6764;53.250;10.410;2024-03-06T00:13:12;4.40;99.90
13389;DHT22;6764;53.250;10.410;2024-03-06T00:15:38;4.40;99.90
13389;DHT22;6764;53.250;10.410;2024-03-06T00:18:03;4.30;99.90
13389;DHT22;6764;53.250;10.410;2024-03-06T00:20:30;4.20;99.90
13389;DHT22;6764;53.250;10.410;2024-03-06T00:22:56;4.20;99.90
13389;DHT22;6764;53.250;10.410;2024-03-06T00:25:21;4.20;99.90
13389;DHT22;6764;53.250;10.410;2024-03-06T00:27:47;4.20;99.90
13389;DHT22;6764;53.250;10.410;2024-03-06T00:30:13;4.20;99.90
13389;DHT22;6764;53.250;10.410;2024-03-06T00:32:38;4.20;99.90
13389;DHT22;6764;53.250;10.410;2024-03-06T00:35:04;4.10;99.90
13389;DHT22;6764;53.250;10.410;2024-03-06T00:37:30;4.20;99.90
13389;DHT22;6764;53.250;10.410;2024-03-06T00:39:55;4.20;99.90
13389;DHT22;6764;53.250;10.410;2024-03-06T00:42:21;4.10;99.90
13389;DHT22;6764;53.250;10.410;2024-03-06T00:44:47;3.90;99.90
13389;DHT22;6764;53.250;10.410;2024-03-06T00:47:12;3.90;99.90
13389;DHT22;6764;53.250;10.410;2024-03-06T00:49:38;3.90;99.90
13389;DHT22;6764;53.250;10.410;2024-03-06T00:52:04;3.90;99.90
13389;DHT22;6764;53.250;10.410;2024-03-06T00:54:30;3.80;99.90
13389;DHT22;6764;53.250;10.410;2024-03-06T00:56:56;3.80;99.90
13389;DHT22;6764;53.250;10.410;2024-03-06T00:59:23;3.70;99.90
13389;DHT22;6764;53.250;10.410;2024-03-06T01:01:48;3.80;99.90
13389;DHT22;6764;53.250;10.410;2024-03-06T01:04:14;3.90;99.90
13389;DHT22;6764;53.250;10.410;2024-03-06T01:06:39;3.90;99.90
13389;DHT22;6764;53.250;10.410;2024-03-06T01:09:05;3.80;99.90
13389;DHT22;6764;53.250;10.410;2024-03-06T01:11:31;3.80;99.90
13389;DHT22;6764;53.250;10.410;2024-03-06T01:13:56;3.90;99.90
13389;DHT22;6764;53.250;10.410;2024-03-06T01:16:22;3.80;99.90
13389;DHT22;6764;53.250;10.410;2024-03-06T01:18:48;3.90;99.90
13389;DHT22;6764;53.250;10.410;2024-03-06T01:21:13;3.80;99.90
13389;DHT22;6764;53.250;10.410;2024-03-06T01:23:39;3.70;99.90
13389;DHT22;6764;53.250;10.410;2024-03-06T01:26:04;3.70;99.90
13389;DHT22;6764;53.250;10.410;2024-03-06T01:28:30;3.60;99.90
13389;DHT22;6764;53.250;10.410;2024-03-06T01:30:55;3.60;99.90
13389;DHT22;6764;53.250;10.410;2024-03-06T01:33:21;3.50;99.90
13389;DHT22;6764;53.250;10.410;2024-03-06T01:35:47;3.60;99.90
13389;DHT22;6764;53.250;10.410;2024-03-06T01:38:12;3.60;99.90
13389;DHT22;6764;53.250;10.410;2024-03-06T01:40:43;3.60;99.90
13389;DHT22;6764;53.250;10.410;2024-03-06T01:43:19;3.60;99.90
13389;DHT22;6764;53.250;10.410;2024-03-06T01:45:45;3.60;99.90
13389;DHT22;6764;53.250;10.410;2024-03-06T01:48:11;3.50;99.90
13389;DHT22;6764;53.250;10.410;2024-03-06T01:50:37;3.50;99.90
13389;DHT22;6764;53.250;10.410;2024-03-06T01:53:02;3.50;99.90
13389;DHT22;6764;53.250;10.410;2024-03-06T01:55:28;3.50;99.90
13389;DHT22;6764;53.250;10.410;2024-03-06T01:57:53;3.50;99.90
13389;DHT22;6764;53.250;10.410;2024-03-06T02:00:19;3.50;99.90
13389;DHT22;6764;53.250;10.410;2024-03-06T02:02:46;3.60;99.90
13389;DHT22;6764;53.250;10.410;2024-03-06T02:05:12;3.70;99.90
13389;DHT22;6764;53.250;10.410;2024-03-06T02:07:38;3.70;99.90
13389;DHT22;6764;53.250;10.410;2024-03-06T02:10:08;3.60;99.90
13389;DHT22;6764;53.250;10.410;2024-03-06T02:12:36;3.70;99.90
13389;DHT22;6764;53.250;10.410;2024-03-06T02:15:02;3.60;99.90
13389;DHT22;6764;53.250;10.410;2024-03-06T02:17:28;3.60;99.90
13389;DHT22;6764;53.250;10.410;2024-03-06T02:19:55;3.40;99.90
13389;DHT22;6764;53.250;10.410;2024-03-06T02:22:21;3.30;99.90
13389;DHT22;6764;53.250;10.410;2024-03-06T02:24:48;3.20;99.90
13389;DHT22;6764;53.250;10.410;2024-03-06T02:27:13;3.30;99.90
13389;DHT22;6764;53.250;10.410;2024-03-06T02:29:39;3.40;99.90
13389;DHT22;6764;53.250;10.410;2024-03-06T02:32:05;3.40;99.90
13389;DHT22;6764;53.250;10.410;2024-03-06T02:34:30;3.50;99.90
13389;DHT22;6764;53.250;10.410;2024-03-06T02:36:56;3.50;99.90
13389;DHT22;6764;53.250;10.410;2024-03-06T02:39:22;3.50;99.90
13389;DHT22;6764;53.250;10.410;2024-03-06T02:41:47;3.50;99.90
13389;DHT22;6764;53.250;10.410;2024-03-06T02:44:17;3.40;99.90
13389;DHT22;6764;53.250;10.410;2024-03-06T02:46:49;3.40;99.90
13389;DHT22;6764;53.250;10.410;2024-03-06T02:49:15;3.40;99.90
13389;DHT22;6764;53.250;10.410;2024-03-06T02:51:41;3.40;99.90
13389;DHT22;6764;53.250;10.410;2024-03-06T02:54:06;3.30;99.90
13389;DHT22;6764;53.250;10.410;2024-03-06T02:56:32;3.30;99.90
13389;DHT22;6764;53.250;10.410;2024-03-06T02:58:58;3.30;99.90
13389;DHT22;6764;53.250;10.410;2024-03-06T03:01:23;3.20;99.90
13389;DHT22;6764;53.250;10.410;2024-03-06T03:03:49;3.40;99.90
13389;DHT22;6764;53.250;10.410;2024-03-06T03:06:16;3.40;99.90
13389;DHT22;6764;53.250;10.410;2024-03-06T03:08:42;3.30;99.90
13389;DHT22;6764;53.250;10.410;2024-03-06T03:11:07;3.20;99.90
13389;DHT22;6764;53.250;10.410;2024-03-06T03:13:33;3.30;99.90
13389;DHT22;6764;53.250;10.410;2024-03-06T03:15:59;3.10;99.90
13389;DHT22;6764;53.250;10.410;2024-03-06T03:18:24;3.10;99.90
13389;DHT22;6764;53.250;10.410;2024-03-06T03:20:50;3.00;99.90
13389;DHT22;6764;53.250;10.410;2024-03-06T03:23:16;3.10;99.90
13389;DHT22;6764;53.250;10.410;2024-03-06T03:25:50;3.10;99.90
13389;DHT22;6764;53.250;10.410;2024-03-06T03:28:15;3.20;99.90
13389;DHT22;6764;53.250;10.410;2024-03-06T03:30:43;3.30;99.90
13389;DHT22;6764;53.250;10.410;2024-03-06T03:33:09;3.20;99.90
13389;DHT22;6764;53.250;10.410;2024-03-06T03:35:35;3.20;99.90
13389;DHT22;6764;53.250;10.410;2024-03-06T03:38:00;3.20;99.90
13389;DHT22;6764;53.250;10.410;2024-03-06T03:40:26;3.30;99.90
13389;DHT22;6764;53.250;10.410;2024-03-06T03:42:52;3.20;99.90
13389;DHT22;6764;53.250;10.410;2024-03-06T03:45:17;3.20;99.90
13389;DHT22;6764;53.250;10.410;2024-03-06T03:47:43;3.20;99.90
13389;DHT22;6764;53.250;10.410;2024-03-06T03:50:09;3.10;99.90
13389;DHT22;6764;53.250;10.410;2024-03-06T03:52:35;3.20;99.90
13389;DHT22;6764;53.250;10.410;2024-03-06T03:55:00;3.20;99.90
13389;DHT22;6764;53.250;10.410;2024-03-06T03:57:26;3.20;99.90
13389;DHT22;6764;53.250;10.410;2024-03-06T03:59:52;3.20;99.90
13389;DHT22;6764;53.250;10.410;2024-03-06T04:02:19;3.20;99.90
13389;DHT22;6764;53.250;10.410;2024-03-06T04:04:44;3.10;99.90
13389;DHT22;6764;53.250;10.410;2024-03-06T04:07:10;3.20;99.90
13389;DHT22;6764;53.250;10.410;2024-03-06T04:09:36;3.10;99.90
13389;DHT22;6764;53.250;10.410;2024-03-06T04:12:02;3.20;99.90
13389;DHT22;6764;53.250;10.410;2024-03-06T04:14:29;3.20;99.90
13389;DHT22;6764;53.250;10.410;2024-03-06T04:16:55;3.30;99.90
13389;DHT22;6764;53.250;10.410;2024-03-06T04:19:21;3.40;99.90
13389;DHT22;6764;53.250;10.410;2024-03-06T04:21:47;3.40;99.90
13389;DHT22;6764;53.250;10.410;2024-03-06T04:24:12;3.40;99.90
13389;DHT22;6764;53.250;10.410;2024-03-06T04:26:38;3.40;99.90
13389;DHT22;6764;53.250;10.410;2024-03-06T04:29:03;3.30;99.90
13389;DHT22;6764;53.250;10.410;2024-03-06T04:31:29;3.30;99.90
13389;DHT22;6764;53.250;10.410;2024-03-06T04:33:55;3.40;99.90
13389;DHT22;6764;53.250;10.410;2024-03-06T04:36:20;3.50;99.90
13389;DHT22;6764;53.250;10.410;2024-03-06T04:38:46;3.40;99.90
13389;DHT22;6764;53.250;10.410;2024-03-06T04:41:11;3.40;99.90
13389;DHT22;6764;53.250;10.410;2024-03-06T04:43:37;3.40;99.90
13389;DHT22;6764;53.250;10.410;2024-03-06T04:46:03;3.30;99.90
13389;DHT22;6764;53.250;10.410;2024-03-06T04:48:29;3.40;99.90
13389;DHT22;6764;53.250;10.410;2024-03-06T04:50:55;3.50;99.90
13389;DHT22;6764;53.250;10.410;2024-03-06T04:53:20;3.40;99.90
13389;DHT22;6764;53.250;10.410;2024-03-06T04:55:46;3.40;99.90
13389;DHT22;6764;53.250;10.410;2024-03-06T04:58:13;3.40;99.90
13389;DHT22;6764;53.250;10.410;2024-03-06T05:00:38;3.40;99.90
13389;DHT22;6764;53.250;10.410;2024-03-06T05:03:04;3.40;99.90
13389;DHT22;6764;53.250;10.410;2024-03-06T05:05:30;3.40;99.90
13389;DHT22;6764;53.250;10.410;2024-03-06T05:07:56;3.50;99.90
13389;DHT22;6764;53.250;10.410;2024-03-06T05:10:21;3.50;99.90
13389;DHT22;6764;53.250;10.410;2024-03-06T05:12:47;3.40;99.90
13389;DHT22;6764;53.250;10.410;2024-03-06T05:15:14;3.40;99.90
13389;DHT22;6764;53.250;10.410;2024-03-06T05:17:40;3.50;99.90
13389;DHT22;6764;53.250;10.410;2024-03-06T05:20:06;3.60;99.90
13389;DHT22;6764;53.250;10.410;2024-03-06T05:22:32;3.60;99.90
13389;DHT22;6764;53.250;10.410;2024-03-06T05:24:58;3.70;99.90
13389;DHT22;6764;53.250;10.410;2024-03-06T05:27:26;3.60;99.90
13389;DHT22;6764;53.250;10.410;2024-03-06T05:29:52;3.60;99.90
13389;DHT22;6764;53.250;10.410;2024-03-06T05:32:18;3.70;99.90
13389;DHT22;6764;53.250;10.410;2024-03-06T05:34:43;3.70;99.90
13389;DHT22;6764;53.250;10.410;2024-03-06T05:37:10;3.70;99.90
13389;DHT22;6764;53.250;10.410;2024-03-06T05:39:35;3.80;99.90
13389;DHT22;6764;53.250;10.410;2024-03-06T05:42:02;3.80;99.90
13389;DHT22;6764;53.250;10.410;2024-03-06T05:44:29;3.90;99.90
13389;DHT22;6764;53.250;10.410;2024-03-06T05:46:55;3.80;99.90
13389;DHT22;6764;53.250;10.410;2024-03-06T05:49:21;3.70;99.90
13389;DHT22;6764;53.250;10.410;2024-03-06T05:51:46;3.60;99.90
13389;DHT22;6764;53.250;10.410;2024-03-06T05:54:12;3.50;99.90
13389;DHT22;6764;53.250;10.410;2024-03-06T05:56:38;3.40;99.90
13389;DHT22;6764;53.250;10.410;2024-03-06T05:59:04;3.40;99.90
13389;DHT22;6764;53.250;10.410;2024-03-06T06:01:33;3.40;99.90
13389;DHT22;6764;53.250;10.410;2024-03-06T06:04:00;3.40;99.90
13389;DHT22;6764;53.250;10.410;2024-03-06T06:06:26;3.40;99.90
13389;DHT22;6764;53.250;10.410;2024-03-06T06:08:51;3.40;99.90
13389;DHT22;6764;53.250;10.410;2024-03-06T06:11:17;3.30;99.90
13389;DHT22;6764;53.250;10.410;2024-03-06T06:13:43;3.40;99.90
13389;DHT22;6764;53.250;10.410;2024-03-06T06:16:08;3.50;99.90
13389;DHT22;6764;53.250;10.410;2024-03-06T06:18:34;3.50;99.90
13389;DHT22;6764;53.250;10.410;2024-03-06T06:21:00;3.50;99.90
13389;DHT22;6764;53.250;10.410;2024-03-06T06:23:25;3.50;99.90
13389;DHT22;6764;53.250;10.410;2024-03-06T06:25:51;3.40;99.90
13389;DHT22;6764;53.250;10.410;2024-03-06T06:28:17;3.40;99.90
13389;DHT22;6764;53.250;10.410;2024-03-06T06:30:42;3.50;99.90
13389;DHT22;6764;53.250;10.410;2024-03-06T06:33:08;3.60;99.90
13389;DHT22;6764;53.250;10.410;2024-03-06T06:35:35;3.60;99.90
13389;DHT22;6764;53.250;10.410;2024-03-06T06:38:01;3.70;99.90
13389;DHT22;6764;53.250;10.410;2024-03-06T06:40:27;3.70;99.90
13389;DHT22;6764;53.250;10.410;2024-03-06T06:42:56;3.70;99.90
13389;DHT22;6764;53.250;10.410;2024-03-06T06:45:22;3.80;99.90
13389;DHT22;6764;53.250;10.410;2024-03-06T06:47:49;3.80;99.90
13389;DHT22;6764;53.250;10.410;2024-03-06T06:50:15;4.00;99.90
13389;DHT22;6764;53.250;10.410;2024-03-06T06:52:41;4.00;99.90
13389;DHT22;6764;53.250;10.410;2024-03-06T06:55:07;4.00;99.90
13389;DHT22;6764;53.250;10.410;2024-03-06T06:57:34;4.10;99.90
13389;DHT22;6764;53.250;10.410;2024-03-06T07:00:01;4.20;99.90
13389;DHT22;6764;53.250;10.410;2024-03-06T07:02:31;4.20;99.90
13389;DHT22;6764;53.250;10.410;2024-03-06T07:04:57;4.30;99.90
13389;DHT22;6764;53.250;10.410;2024-03-06T07:07:23;4.40;99.90
13389;DHT22;6764;53.250;10.410;2024-03-06T07:09:48;4.50;99.90
13389;DHT22;6764;53.250;10.410;2024-03-06T07:12:14;4.50;99.90
13389;DHT22;6764;53.250;10.410;2024-03-06T07:14:40;4.60;99.90
13389;DHT22;6764;53.250;10.410;2024-03-06T07:17:05;4.70;99.90
13389;DHT22;6764;53.250;10.410;2024-03-06T07:19:31;4.60;99.90
13389;DHT22;6764;53.250;10.410;2024-03-06T07:21:56;4.70;99.90
13389;DHT22;6764;53.250;10.410;2024-03-06T07:24:22;4.70;99.90
13389;DHT22;6764;53.250;10.410;2024-03-06T07:26:47;4.80;99.90
13389;DHT22;6764;53.250;10.410;2024-03-06T07:29:13;4.80;99.90
13389;DHT22;6764;53.250;10.410;2024-03-06T07:31:43;4.80;99.90
13389;DHT22;6764;53.250;10.410;2024-03-06T07:34:13;4.90;99.90
13389;DHT22;6764;53.250;10.410;2024-03-06T07:36:40;4.90;99.90
13389;DHT22;6764;53.250;10.410;2024-03-06T07:39:06;5.00;99.90
13389;DHT22;6764;53.250;10.410;2024-03-06T07:41:32;5.00;99.90
13389;DHT22;6764;53.250;10.410;2024-03-06T07:43:59;5.10;99.90
13389;DHT22;6764;53.250;10.410;2024-03-06T07:46:25;5.20;99.90
13389;DHT22;6764;53.250;10.410;2024-03-06T07:48:51;5.30;99.90
13389;DHT22;6764;53.250;10.410;2024-03-06T07:51:17;5.30;99.90
13389;DHT22;6764;53.250;10.410;2024-03-06T07:53:42;5.40;99.90
13389;DHT22;6764;53.250;10.410;2024-03-06T07:56:10;5.40;99.90
13389;DHT22;6764;53.250;10.410;2024-03-06T07:58:37;5.40;99.90
13389;DHT22;6764;53.250;10.410;2024-03-06T08:01:03;5.60;99.90
13389;DHT22;6764;53.250;10.410;2024-03-06T08:03:28;5.60;99.90
13389;DHT22;6764;53.250;10.410;2024-03-06T08:05:54;5.60;99.90
13389;DHT22;6764;53.250;10.410;2024-03-06T08:08:20;5.70;99.90
13389;DHT22;6764;53.250;10.410;2024-03-06T08:10:46;5.80;99.90
13389;DHT22;6764;53.250;10.410;2024-03-06T08:13:11;5.80;99.90
13389;DHT22;6764;53.250;10.410;2024-03-06T08:15:37;5.80;99.90
13389;DHT22;6764;53.250;10.410;2024-03-06T08:18:03;5.80;99.90
13389;DHT22;6764;53.250;10.410;2024-03-06T08:20:29;5.90;99.90
13389;DHT22;6764;53.250;10.410;2024-03-06T08:22:56;5.90;99.90
13389;DHT22;6764;53.250;10.410;2024-03-06T08:25:22;5.90;99.90
13389;DHT22;6764;53.250;10.410;2024-03-06T08:27:48;6.00;99.90
13389;DHT22;6764;53.250;10.410;2024-03-06T08:30:14;6.10;99.90
13389;DHT22;6764;53.250;10.410;2024-03-06T08:32:40;6.10;99.90
13389;DHT22;6764;53.250;10.410;2024-03-06T08:35:08;6.20;99.90
13389;DHT22;6764;53.250;10.410;2024-03-06T08:37:37;6.30;99.90
13389;DHT22;6764;53.250;10.410;2024-03-06T08:40:04;6.50;99.90
13389;DHT22;6764;53.250;10.410;2024-03-06T08:42:29;6.60;99.90
13389;DHT22;6764;53.250;10.410;2024-03-06T08:44:55;6.60;99.90
13389;DHT22;6764;53.250;10.410;2024-03-06T08:47:22;6.50;99.90
13389;DHT22;6764;53.250;10.410;2024-03-06T08:49:47;6.50;99.90
13389;DHT22;6764;53.250;10.410;2024-03-06T08:52:16;6.50;99.90
13389;DHT22;6764;53.250;10.410;2024-03-06T08:54:41;6.60;99.90
13389;DHT22;6764;53.250;10.410;2024-03-06T08:57:07;6.60;99.90
13389;DHT22;6764;53.250;10.410;2024-03-06T08:59:34;6.60;99.90
13389;DHT22;6764;53.250;10.410;2024-03-06T09:02:12;6.50;99.90
13389;DHT22;6764;53.250;10.410;2024-03-06T09:04:38;6.50;99.90
13389;DHT22;6764;53.250;10.410;2024-03-06T09:07:04;6.70;99.90
13389;DHT22;6764;53.250;10.410;2024-03-06T09:09:29;6.60;99.90
13389;DHT22;6764;53.250;10.410;2024-03-06T09:11:55;6.60;99.90
13389;DHT22;6764;53.250;10.410;2024-03-06T09:14:20;6.70;99.90
13389;DHT22;6764;53.250;10.410;2024-03-06T09:16:46;6.70;99.90
13389;DHT22;6764;53.250;10.410;2024-03-06T09:19:12;6.70;99.90
13389;DHT22;6764;53.250;10.410;2024-03-06T09:21:37;6.80;99.90
13389;DHT22;6764;53.250;10.410;2024-03-06T09:24:03;6.90;99.90
13389;DHT22;6764;53.250;10.410;2024-03-06T09:26:29;7.10;99.90
13389;DHT22;6764;53.250;10.410;2024-03-06T09:28:55;7.30;99.90
13389;DHT22;6764;53.250;10.410;2024-03-06T09:31:20;7.30;99.90
13389;DHT22;6764;53.250;10.410;2024-03-06T09:33:46;7.50;99.90
13389;DHT22;6764;53.250;10.410;2024-03-06T09:36:11;7.60;99.90
13389;DHT22;6764;53.250;10.410;2024-03-06T09:38:40;7.70;99.90
13389;DHT22;6764;53.250;10.410;2024-03-06T09:41:07;7.60;99.90
13389;DHT22;6764;53.250;10.410;2024-03-06T09:43:33;7.60;99.90
13389;DHT22;6764;53.250;10.410;2024-03-06T09:45:59;7.80;99.90
13389;DHT22;6764;53.250;10.410;2024-03-06T09:48:28;8.00;99.90
13389;DHT22;6764;53.250;10.410;2024-03-06T09:51:00;8.90;99.90
13389;DHT22;6764;53.250;10.410;2024-03-06T09:53:26;9.90;99.90
13389;DHT22;6764;53.250;10.410;2024-03-06T09:55:52;11.40;99.90
13389;DHT22;6764;53.250;10.410;2024-03-06T09:58:18;13.00;99.90
13389;DHT22;6764;53.250;10.410;2024-03-06T10:00:44;14.40;99.90
13389;DHT22;6764;53.250;10.410;2024-03-06T10:03:13;15.60;99.90
13389;DHT22;6764;53.250;10.410;2024-03-06T10:05:38;16.80;99.90
13389;DHT22;6764;53.250;10.410;2024-03-06T10:08:04;17.50;99.90
13389;DHT22;6764;53.250;10.410;2024-03-06T10:10:30;17.70;99.50
13389;DHT22;6764;53.250;10.410;2024-03-06T10:12:59;17.80;98.40
13389;DHT22;6764;53.250;10.410;2024-03-06T10:15:28;18.60;98.30
13389;DHT22;6764;53.250;10.410;2024-03-06T10:18:14;19.40;95.40
13389;DHT22;6764;53.250;10.410;2024-03-06T10:20:40;18.80;94.90
13389;DHT22;6764;53.250;10.410;2024-03-06T10:23:09;19.20;94.50
13389;DHT22;6764;53.250;10.410;2024-03-06T10:25:35;19.70;93.50
13389;DHT22;6764;53.250;10.410;2024-03-06T10:28:05;20.30;91.70
13389;DHT22;6764;53.250;10.410;2024-03-06T10:30:32;20.20;91.20
13389;DHT22;6764;53.250;10.410;2024-03-06T10:33:04;20.10;90.90
13389;DHT22;6764;53.250;10.410;2024-03-06T10:35:32;19.90;90.40
13389;DHT22;6764;53.250;10.410;2024-03-06T10:38:00;19.80;91.00
13389;DHT22;6764;53.250;10.410;2024-03-06T10:40:27;20.30;90.20
13389;DHT22;6764;53.250;10.410;2024-03-06T10:42:58;20.10;89.30
13389;DHT22;6764;53.250;10.410;2024-03-06T10:45:32;20.60;87.70
13389;DHT22;6764;53.250;10.410;2024-03-06T10:48:00;20.90;85.30
13389;DHT22;6764;53.250;10.410;2024-03-06T10:50:27;21.10;82.20
13389;DHT22;6764;53.250;10.410;2024-03-06T10:52:53;21.60;81.80
13389;DHT22;6764;53.250;10.410;2024-03-06T10:55:21;21.60;78.90
13389;DHT22;6764;53.250;10.410;2024-03-06T10:57:48;21.00;77.60
13389;DHT22;6764;53.250;10.410;2024-03-06T11:00:14;21.00;78.70
13389;DHT22;6764;53.250;10.410;2024-03-06T11:02:46;20.30;79.20
13389;DHT22;6764;53.250;10.410;2024-03-06T11:05:14;19.20;78.70
13389;DHT22;6764;53.250;10.410;2024-03-06T11:07:40;18.20;82.30
13389;DHT22;6764;53.250;10.410;2024-03-06T11:10:06;17.30;84.50
13389;DHT22;6764;53.250;10.410;2024-03-06T11:12:36;17.00;85.10
13389;DHT22;6764;53.250;10.410;2024-03-06T11:15:14;16.70;86.80
13389;DHT22;6764;53.250;10.410;2024-03-06T11:17:39;17.20;87.30
13389;DHT22;6764;53.250;10.410;2024-03-06T11:28:23;18.40;83.50
13389;DHT22;6764;53.250;10.410;2024-03-06T11:30:56;18.50;83.20
13389;DHT22;6764;53.250;10.410;2024-03-06T11:33:47;18.10;82.20
13389;DHT22;6764;53.250;10.410;2024-03-06T11:36:31;17.50;83.10
13389;DHT22;6764;53.250;10.410;2024-03-06T11:39:06;16.80;85.30
13389;DHT22;6764;53.250;10.410;2024-03-06T11:44:14;15.60;87.10
13389;DHT22;6764;53.250;10.410;2024-03-06T11:51:40;15.10;90.90
13389;DHT22;6764;53.250;10.410;2024-03-06T11:54:06;15.40;91.30
13389;DHT22;6764;53.250;10.410;2024-03-06T11:56:32;16.00;91.10
13389;DHT22;6764;53.250;10.410;2024-03-06T11:58:58;16.40;90.70
13389;DHT22;6764;53.250;10.410;2024-03-06T12:01:24;16.30;90.80
13389;DHT22;6764;53.250;10.410;2024-03-06T12:03:50;16.30;90.90
13389;DHT22;6764;53.250;10.410;2024-03-06T12:06:15;15.80;90.80
13389;DHT22;6764;53.250;10.410;2024-03-06T12:08:43;15.90;90.60
13389;DHT22;6764;53.250;10.410;2024-03-06T12:11:08;16.10;90.40
13389;DHT22;6764;53.250;10.410;2024-03-06T12:13:34;15.50;90.90
13389;DHT22;6764;53.250;10.410;2024-03-06T12:16:05;15.00;91.30
13389;DHT22;6764;53.250;10.410;2024-03-06T12:18:31;14.50;91.30
13389;DHT22;6764;53.250;10.410;2024-03-06T12:21:01;13.80;92.20
13389;DHT22;6764;53.250;10.410;2024-03-06T12:23:28;13.50;92.90
13389;DHT22;6764;53.250;10.410;2024-03-06T12:26:09;13.10;94.10
13389;DHT22;6764;53.250;10.410;2024-03-06T12:28:37;12.70;95.20
13389;DHT22;6764;53.250;10.410;2024-03-06T12:31:03;12.80;95.60
13389;DHT22;6764;53.250;10.410;2024-03-06T12:33:29;12.80;95.50
13389;DHT22;6764;53.250;10.410;2024-03-06T12:38:29;12.80;96.00
13389;DHT22;6764;53.250;10.410;2024-03-06T12:40:59;12.90;96.60
13389;DHT22;6764;53.250;10.410;2024-03-06T12:43:25;12.80;97.10
13389;DHT22;6764;53.250;10.410;2024-03-06T12:45:51;12.70;97.70
13389;DHT22;6764;53.250;10.410;2024-03-06T12:48:20;12.60;98.00
13389;DHT22;6764;53.250;10.410;2024-03-06T12:50:46;12.40;98.20
13389;DHT22;6764;53.250;10.410;2024-03-06T12:53:17;12.30;98.90
13389;DHT22;6764;53.250;10.410;2024-03-06T12:55:44;11.70;99.60
13389;DHT22;6764;53.250;10.410;2024-03-06T12:58:11;11.50;99.90
13389;DHT22;6764;53.250;10.410;2024-03-06T13:00:37;11.30;99.90
13389;DHT22;6764;53.250;10.410;2024-03-06T13:03:03;11.20;99.90
13389;DHT22;6764;53.250;10.410;2024-03-06T13:05:29;11.30;99.90
13389;DHT22;6764;53.250;10.410;2024-03-06T13:07:54;11.30;99.90
13389;DHT22;6764;53.250;10.410;2024-03-06T13:10:20;11.20;99.90
13389;DHT22;6764;53.250;10.410;2024-03-06T13:12:47;11.00;99.90
13389;DHT22;6764;53.250;10.410;2024-03-06T13:15:13;11.00;99.90
13389;DHT22;6764;53.250;10.410;2024-03-06T13:17:38;10.80;99.90
13389;DHT22;6764;53.250;10.410;2024-03-06T13:20:06;10.70;99.90
13389;DHT22;6764;53.250;10.410;2024-03-06T13:22:35;10.60;99.90
13389;DHT22;6764;53.250;10.410;2024-03-06T13:25:00;10.50;99.90
13389;DHT22;6764;53.250;10.410;2024-03-06T13:27:26;10.50;99.90
13389;DHT22;6764;53.250;10.410;2024-03-06T13:29:52;10.30;99.90
13389;DHT22;6764;53.250;10.410;2024-03-06T13:32:18;10.30;99.90
13389;DHT22;6764;53.250;10.410;2024-03-06T13:34:43;10.40;99.90
13389;DHT22;6764;53.250;10.410;2024-03-06T13:37:09;10.70;99.90
13389;DHT22;6764;53.250;10.410;2024-03-06T13:39:36;10.70;99.90
13389;DHT22;6764;53.250;10.410;2024-03-06T13:42:02;10.70;99.90
13389;DHT22;6764;53.250;10.410;2024-03-06T13:44:27;10.80;99.90
13389;DHT22;6764;53.250;10.410;2024-03-06T13:46:53;10.90;99.90
13389;DHT22;6764;53.250;10.410;2024-03-06T13:49:37;10.70;99.90
13389;DHT22;6764;53.250;10.410;2024-03-06T13:52:04;10.60;99.90
13389;DHT22;6764;53.250;10.410;2024-03-06T13:54:42;10.70;99.90
13389;DHT22;6764;53.250;10.410;2024-03-06T13:57:09;10.80;99.90
13389;DHT22;6764;53.250;10.410;2024-03-06T13:59:35;11.10;99.90
13389;DHT22;6764;53.250;10.410;2024-03-06T14:02:01;11.30;99.90
13389;DHT22;6764;53.250;10.410;2024-03-06T14:04:28;11.30;99.90
13389;DHT22;6764;53.250;10.410;2024-03-06T14:06:54;11.30;99.90
13389;DHT22;6764;53.250;10.410;2024-03-06T14:09:19;11.40;99.90
13389;DHT22;6764;53.250;10.410;2024-03-06T14:11:45;11.40;99.90
13389;DHT22;6764;53.250;10.410;2024-03-06T14:14:11;11.10;99.90
13389;DHT22;6764;53.250;10.410;2024-03-06T14:16:39;11.20;99.90
13389;DHT22;6764;53.250;10.410;2024-03-06T14:19:05;11.10;99.90
13389;DHT22;6764;53.250;10.410;2024-03-06T14:21:31;11.00;99.90
13389;DHT22;6764;53.250;10.410;2024-03-06T14:24:00;10.90;99.90
13389;DHT22;6764;53.250;10.410;2024-03-06T14:26:29;10.80;99.90
13389;DHT22;6764;53.250;10.410;2024-03-06T14:28:55;10.50;99.90
13389;DHT22;6764;53.250;10.410;2024-03-06T14:31:20;10.40;99.90
13389;DHT22;6764;53.250;10.410;2024-03-06T14:33:46;10.30;99.90
13389;DHT22;6764;53.250;10.410;2024-03-06T14:36:12;10.40;99.90
13389;DHT22;6764;53.250;10.410;2024-03-06T14:38:38;10.40;99.90
13389;DHT22;6764;53.250;10.410;2024-03-06T14:41:04;10.40;99.90
13389;DHT22;6764;53.250;10.410;2024-03-06T14:43:31;10.40;99.90
13389;DHT22;6764;53.250;10.410;2024-03-06T14:46:00;10.40;99.90
13389;DHT22;6764;53.250;10.410;2024-03-06T14:48:25;10.40;99.90
13389;DHT22;6764;53.250;10.410;2024-03-06T14:50:51;10.40;99.90
13389;DHT22;6764;53.250;10.410;2024-03-06T14:53:17;10.60;99.90
13389;DHT22;6764;53.250;10.410;2024-03-06T14:55:42;10.70;99.90
13389;DHT22;6764;53.250;10.410;2024-03-06T14:58:08;10.80;99.90
13389;DHT22;6764;53.250;10.410;2024-03-06T15:00:34;11.00;99.90
13389;DHT22;6764;53.250;10.410;2024-03-06T15:02:59;10.80;99.90
13389;DHT22;6764;53.250;10.410;2024-03-06T15:05:27;10.70;99.90
13389;DHT22;6764;53.250;10.410;2024-03-06T15:07:53;10.50;99.90
13389;DHT22;6764;53.250;10.410;2024-03-06T15:10:19;10.20;99.90
13389;DHT22;6764;53.250;10.410;2024-03-06T15:12:45;10.20;99.90
13389;DHT22;6764;53.250;10.410;2024-03-06T15:15:11;10.10;99.90
13389;DHT22;6764;53.250;10.410;2024-03-06T15:17:37;10.00;99.90
13389;DHT22;6764;53.250;10.410;2024-03-06T15:20:07;9.90;99.90
13389;DHT22;6764;53.250;10.410;2024-03-06T15:22:35;9.90;99.90
13389;DHT22;6764;53.250;10.410;2024-03-06T15:25:07;10.00;99.90
13389;DHT22;6764;53.250;10.410;2024-03-06T15:27:34;10.10;99.90
13389;DHT22;6764;53.250;10.410;2024-03-06T15:30:01;10.10;99.90
13389;DHT22;6764;53.250;10.410;2024-03-06T15:32:28;10.10;99.90
13389;DHT22;6764;53.250;10.410;2024-03-06T15:34:53;10.00;99.90
13389;DHT22;6764;53.250;10.410;2024-03-06T15:37:22;10.00;99.90
13389;DHT22;6764;53.250;10.410;2024-03-06T15:39:51;10.00;99.90
13389;DHT22;6764;53.250;10.410;2024-03-06T15:42:17;9.90;99.90
13389;DHT22;6764;53.250;10.410;2024-03-06T15:44:42;9.80;99.90
13389;DHT22;6764;53.250;10.410;2024-03-06T15:47:08;9.80;99.90
13389;DHT22;6764;53.250;10.410;2024-03-06T15:49:33;9.60;99.90
13389;DHT22;6764;53.250;10.410;2024-03-06T15:51:59;9.60;99.90
13389;DHT22;6764;53.250;10.410;2024-03-06T15:54:25;9.60;99.90